Marlboro College, Vermont
Current Conditions -  °F | °C
As of 9:15 AM on Thursday 23 Oct 2014 (Local Time) from KEEN Reporting Station
Overcast Overcast  
Wind Chill: 45°   Ceiling: 1700
Heat Index: 48°   Visibility: 8mi
Dew Point: 39°   Wind: 8mph
Humidity: 71%   Direction: 360°N
Pressure: 29.78"   Gusts: NA
Location:  42.8549°N, 72.6883°W
Report Text: KEEN 231315Z AUTO 36007KT 8SM BKN017 OVC024 09/04 A2978 RMK AO1 P0013
Loading
Personal Weather Stations






























Interactive Weather Map
Tropical Storm Tracking
New forecast layout! Learn more

10-Day Weather Forecast

Advertisements
Track Severe Weather on mobile